Terminal Aerodrome Forecast
Issued by NWS

Home | Current Version | Previous Version | Text Only | Print | Product List | Glossary On
Versions: 1 2 3 4 5 6 7 8 9 10 11 12 13 14 15 16
000
FTUS42 KMHX 241159 CCA
TAFISO
TAF COR
KISO 241159Z 2412/2512 03003KT P6SM SCT250
      TEMPO 2412/2413 5SM BR
     FM241600 04009KT P6SM FEW250
     FM250800 03006KT 5SM BR FEW250
      AMD LTD TO CLD VIS AND WIND=

USA.gov is the U.S. government's official web portal to all federal, state and local government web resources and services.